sensor_id;sensor_type;location;lat;lon;timestamp;P1;durP1;ratioP1;P2;durP2;ratioP2
43706;SDS011;61348;53.392;-6.248;2023-01-15T00:01:54;4.47;;;1.02;;
43706;SDS011;61348;53.392;-6.248;2023-01-15T00:04:21;15.38;;;1.98;;
43706;SDS011;61348;53.392;-6.248;2023-01-15T00:06:48;3.90;;;1.00;;
43706;SDS011;61348;53.392;-6.248;2023-01-15T00:09:15;5.53;;;0.85;;
43706;SDS011;61348;53.392;-6.248;2023-01-15T00:11:41;5.28;;;1.17;;
43706;SDS011;61348;53.392;-6.248;2023-01-15T00:14:08;6.32;;;1.48;;
43706;SDS011;61348;53.392;-6.248;2023-01-15T00:16:35;3.63;;;1.52;;
43706;SDS011;61348;53.392;-6.248;2023-01-15T00:19:02;6.40;;;1.05;;
43706;SDS011;61348;53.392;-6.248;2023-01-15T00:21:30;1.77;;;1.23;;
43706;SDS011;61348;53.392;-6.248;2023-01-15T00:23:56;2.72;;;0.93;;
43706;SDS011;61348;53.392;-6.248;2023-01-15T00:26:42;3.13;;;1.00;;
43706;SDS011;61348;53.392;-6.248;2023-01-15T00:29:28;4.32;;;0.68;;
43706;SDS011;61348;53.392;-6.248;2023-01-15T00:31:56;2.33;;;0.98;;
43706;SDS011;61348;53.392;-6.248;2023-01-15T00:34:25;2.90;;;0.82;;
43706;SDS011;61348;53.392;-6.248;2023-01-15T00:36:52;3.90;;;0.80;;
43706;SDS011;61348;53.392;-6.248;2023-01-15T00:39:19;3.00;;;1.10;;
43706;SDS011;61348;53.392;-6.248;2023-01-15T00:41:46;2.47;;;0.60;;
43706;SDS011;61348;53.392;-6.248;2023-01-15T00:44:13;5.30;;;1.15;;
43706;SDS011;61348;53.392;-6.248;2023-01-15T00:46:40;2.22;;;0.60;;
43706;SDS011;61348;53.392;-6.248;2023-01-15T00:49:07;2.33;;;0.80;;
43706;SDS011;61348;53.392;-6.248;2023-01-15T00:51:34;3.33;;;0.70;;
43706;SDS011;61348;53.392;-6.248;2023-01-15T00:54:01;3.40;;;1.17;;
43706;SDS011;61348;53.392;-6.248;2023-01-15T00:56:28;6.90;;;1.30;;
43706;SDS011;61348;53.392;-6.248;2023-01-15T00:58:55;4.40;;;1.02;;
43706;SDS011;61348;53.392;-6.248;2023-01-15T01:01:22;3.10;;;1.02;;
43706;SDS011;61348;53.392;-6.248;2023-01-15T01:03:49;4.05;;;0.90;;
43706;SDS011;61348;53.392;-6.248;2023-01-15T01:06:18;2.88;;;0.73;;
43706;SDS011;61348;53.392;-6.248;2023-01-15T01:08:46;4.68;;;1.98;;
43706;SDS011;61348;53.392;-6.248;2023-01-15T01:11:15;2.55;;;1.23;;
43706;SDS011;61348;53.392;-6.248;2023-01-15T01:13:44;1.25;;;0.85;;
43706;SDS011;61348;53.392;-6.248;2023-01-15T01:18:59;1.38;;;0.80;;
43706;SDS011;61348;53.392;-6.248;2023-01-15T01:21:28;1.88;;;0.70;;
43706;SDS011;61348;53.392;-6.248;2023-01-15T01:23:59;5.22;;;1.63;;
43706;SDS011;61348;53.392;-6.248;2023-01-15T01:26:27;1.92;;;1.20;;
43706;SDS011;61348;53.392;-6.248;2023-01-15T01:28:54;5.63;;;0.98;;
43706;SDS011;61348;53.392;-6.248;2023-01-15T01:31:22;1.55;;;0.50;;
43706;SDS011;61348;53.392;-6.248;2023-01-15T01:33:50;3.75;;;0.68;;
43706;SDS011;61348;53.392;-6.248;2023-01-15T01:36:18;6.28;;;0.73;;
43706;SDS011;61348;53.392;-6.248;2023-01-15T01:38:46;0.88;;;0.52;;
43706;SDS011;61348;53.392;-6.248;2023-01-15T01:41:16;2.88;;;0.80;;
43706;SDS011;61348;53.392;-6.248;2023-01-15T01:46:22;1.05;;;0.52;;
43706;SDS011;61348;53.392;-6.248;2023-01-15T01:49:09;2.50;;;0.60;;
43706;SDS011;61348;53.392;-6.248;2023-01-15T01:51:39;1.77;;;0.35;;
43706;SDS011;61348;53.392;-6.248;2023-01-15T01:54:08;0.65;;;0.30;;
43706;SDS011;61348;53.392;-6.248;2023-01-15T01:56:37;1.27;;;1.02;;
43706;SDS011;61348;53.392;-6.248;2023-01-15T01:59:04;2.80;;;0.95;;
43706;SDS011;61348;53.392;-6.248;2023-01-15T02:01:33;2.72;;;0.80;;
43706;SDS011;61348;53.392;-6.248;2023-01-15T02:04:00;1.17;;;0.55;;
43706;SDS011;61348;53.392;-6.248;2023-01-15T02:06:27;0.60;;;0.32;;
43706;SDS011;61348;53.392;-6.248;2023-01-15T02:08:55;1.77;;;0.50;;
43706;SDS011;61348;53.392;-6.248;2023-01-15T02:11:22;1.45;;;0.60;;
43706;SDS011;61348;53.392;-6.248;2023-01-15T02:13:52;2.95;;;0.40;;
43706;SDS011;61348;53.392;-6.248;2023-01-15T02:16:32;0.47;;;0.43;;
43706;SDS011;61348;53.392;-6.248;2023-01-15T02:27:37;1.27;;;0.95;;
43706;SDS011;61348;53.392;-6.248;2023-01-15T02:30:17;3.60;;;0.82;;
43706;SDS011;61348;53.392;-6.248;2023-01-15T02:32:53;0.40;;;0.30;;
43706;SDS011;61348;53.392;-6.248;2023-01-15T02:35:26;2.13;;;0.73;;
43706;SDS011;61348;53.392;-6.248;2023-01-15T02:37:58;1.52;;;0.50;;
43706;SDS011;61348;53.392;-6.248;2023-01-15T02:40:28;4.83;;;0.97;;
43706;SDS011;61348;53.392;-6.248;2023-01-15T02:42:58;1.55;;;0.57;;
43706;SDS011;61348;53.392;-6.248;2023-01-15T02:45:26;1.55;;;1.40;;
43706;SDS011;61348;53.392;-6.248;2023-01-15T02:47:57;4.20;;;0.70;;
43706;SDS011;61348;53.392;-6.248;2023-01-15T02:50:30;0.60;;;0.30;;
43706;SDS011;61348;53.392;-6.248;2023-01-15T02:53:04;1.83;;;0.80;;
43706;SDS011;61348;53.392;-6.248;2023-01-15T02:55:35;3.17;;;0.50;;
43706;SDS011;61348;53.392;-6.248;2023-01-15T02:58:07;3.90;;;1.05;;
43706;SDS011;61348;53.392;-6.248;2023-01-15T03:00:40;2.53;;;0.75;;
43706;SDS011;61348;53.392;-6.248;2023-01-15T03:06:13;2.17;;;0.70;;
43706;SDS011;61348;53.392;-6.248;2023-01-15T03:08:44;0.80;;;0.55;;
43706;SDS011;61348;53.392;-6.248;2023-01-15T03:11:12;5.80;;;1.00;;
43706;SDS011;61348;53.392;-6.248;2023-01-15T03:16:12;2.17;;;0.70;;
43706;SDS011;61348;53.392;-6.248;2023-01-15T03:19:19;1.30;;;0.75;;
43706;SDS011;61348;53.392;-6.248;2023-01-15T03:22:04;3.92;;;0.63;;
43706;SDS011;61348;53.392;-6.248;2023-01-15T03:24:51;3.35;;;0.45;;
43706;SDS011;61348;53.392;-6.248;2023-01-15T03:27:25;3.95;;;0.82;;
43706;SDS011;61348;53.392;-6.248;2023-01-15T03:29:53;3.22;;;0.65;;
43706;SDS011;61348;53.392;-6.248;2023-01-15T03:32:38;10.57;;;2.10;;
43706;SDS011;61348;53.392;-6.248;2023-01-15T03:35:06;5.95;;;1.75;;
43706;SDS011;61348;53.392;-6.248;2023-01-15T03:37:53;4.05;;;0.95;;
43706;SDS011;61348;53.392;-6.248;2023-01-15T03:40:20;4.47;;;1.02;;
43706;SDS011;61348;53.392;-6.248;2023-01-15T03:42:55;4.90;;;0.85;;
43706;SDS011;61348;53.392;-6.248;2023-01-15T03:45:47;6.35;;;1.52;;
43706;SDS011;61348;53.392;-6.248;2023-01-15T03:48:26;5.10;;;0.98;;
43706;SDS011;61348;53.392;-6.248;2023-01-15T03:51:06;4.32;;;1.10;;
43706;SDS011;61348;53.392;-6.248;2023-01-15T03:53:58;4.10;;;1.08;;
43706;SDS011;61348;53.392;-6.248;2023-01-15T03:56:28;6.95;;;1.20;;
43706;SDS011;61348;53.392;-6.248;2023-01-15T04:01:42;7.93;;;0.80;;
43706;SDS011;61348;53.392;-6.248;2023-01-15T04:04:11;4.40;;;1.10;;
43706;SDS011;61348;53.392;-6.248;2023-01-15T04:06:39;8.00;;;0.90;;
43706;SDS011;61348;53.392;-6.248;2023-01-15T04:09:09;5.35;;;0.85;;
43706;SDS011;61348;53.392;-6.248;2023-01-15T04:11:37;5.78;;;0.90;;
43706;SDS011;61348;53.392;-6.248;2023-01-15T04:14:04;5.55;;;1.15;;
43706;SDS011;61348;53.392;-6.248;2023-01-15T04:16:32;3.58;;;1.40;;
43706;SDS011;61348;53.392;-6.248;2023-01-15T04:19:00;4.32;;;1.05;;
43706;SDS011;61348;53.392;-6.248;2023-01-15T04:21:27;7.15;;;2.55;;
43706;SDS011;61348;53.392;-6.248;2023-01-15T04:23:53;6.15;;;1.50;;
43706;SDS011;61348;53.392;-6.248;2023-01-15T04:26:20;4.20;;;0.93;;
43706;SDS011;61348;53.392;-6.248;2023-01-15T04:28:47;8.75;;;1.45;;
43706;SDS011;61348;53.392;-6.248;2023-01-15T04:31:14;7.88;;;1.88;;
43706;SDS011;61348;53.392;-6.248;2023-01-15T04:33:41;9.27;;;0.73;;
43706;SDS011;61348;53.392;-6.248;2023-01-15T04:36:09;4.28;;;0.77;;
43706;SDS011;61348;53.392;-6.248;2023-01-15T04:38:36;5.80;;;0.90;;
43706;SDS011;61348;53.392;-6.248;2023-01-15T04:41:04;3.63;;;0.90;;
43706;SDS011;61348;53.392;-6.248;2023-01-15T04:43:50;6.35;;;1.10;;
43706;SDS011;61348;53.392;-6.248;2023-01-15T04:46:38;4.10;;;0.77;;
43706;SDS011;61348;53.392;-6.248;2023-01-15T04:49:09;4.15;;;1.42;;
43706;SDS011;61348;53.392;-6.248;2023-01-15T04:51:37;11.70;;;3.17;;
43706;SDS011;61348;53.392;-6.248;2023-01-15T04:54:05;8.93;;;0.90;;
43706;SDS011;61348;53.392;-6.248;2023-01-15T04:56:36;4.45;;;0.95;;
43706;SDS011;61348;53.392;-6.248;2023-01-15T04:59:07;4.18;;;1.55;;
43706;SDS011;61348;53.392;-6.248;2023-01-15T05:01:34;8.15;;;1.17;;
43706;SDS011;61348;53.392;-6.248;2023-01-15T05:04:01;5.95;;;1.48;;
43706;SDS011;61348;53.392;-6.248;2023-01-15T05:06:28;3.80;;;1.48;;
43706;SDS011;61348;53.392;-6.248;2023-01-15T05:08:57;8.55;;;2.03;;
43706;SDS011;61348;53.392;-6.248;2023-01-15T05:11:25;5.15;;;1.23;;
43706;SDS011;61348;53.392;-6.248;2023-01-15T05:13:53;5.65;;;1.20;;
43706;SDS011;61348;53.392;-6.248;2023-01-15T05:16:21;3.13;;;0.93;;
43706;SDS011;61348;53.392;-6.248;2023-01-15T05:18:52;9.43;;;2.22;;
43706;SDS011;61348;53.392;-6.248;2023-01-15T05:21:22;9.57;;;1.33;;
43706;SDS011;61348;53.392;-6.248;2023-01-15T05:23:52;9.07;;;1.67;;
43706;SDS011;61348;53.392;-6.248;2023-01-15T05:26:20;7.10;;;1.10;;
43706;SDS011;61348;53.392;-6.248;2023-01-15T05:28:47;4.90;;;1.33;;
43706;SDS011;61348;53.392;-6.248;2023-01-15T05:31:15;4.00;;;1.23;;
43706;SDS011;61348;53.392;-6.248;2023-01-15T05:33:44;7.55;;;1.25;;
43706;SDS011;61348;53.392;-6.248;2023-01-15T05:36:13;5.40;;;1.20;;
43706;SDS011;61348;53.392;-6.248;2023-01-15T05:38:41;8.18;;;1.73;;
43706;SDS011;61348;53.392;-6.248;2023-01-15T05:41:09;9.90;;;1.40;;
43706;SDS011;61348;53.392;-6.248;2023-01-15T05:43:59;16.58;;;1.65;;
43706;SDS011;61348;53.392;-6.248;2023-01-15T05:46:27;6.55;;;1.70;;
43706;SDS011;61348;53.392;-6.248;2023-01-15T05:48:58;10.43;;;1.50;;
43706;SDS011;61348;53.392;-6.248;2023-01-15T05:51:28;8.35;;;1.65;;
43706;SDS011;61348;53.392;-6.248;2023-01-15T05:53:56;5.22;;;0.90;;
43706;SDS011;61348;53.392;-6.248;2023-01-15T05:56:23;8.18;;;1.13;;
43706;SDS011;61348;53.392;-6.248;2023-01-15T05:58:50;10.65;;;1.48;;
43706;SDS011;61348;53.392;-6.248;2023-01-15T06:01:17;6.22;;;1.20;;
43706;SDS011;61348;53.392;-6.248;2023-01-15T06:03:44;5.75;;;1.08;;
43706;SDS011;61348;53.392;-6.248;2023-01-15T06:06:16;10.23;;;2.00;;
43706;SDS011;61348;53.392;-6.248;2023-01-15T06:08:43;2.20;;;0.82;;
43706;SDS011;61348;53.392;-6.248;2023-01-15T06:11:10;5.28;;;1.35;;
43706;SDS011;61348;53.392;-6.248;2023-01-15T06:13:38;5.28;;;1.40;;
43706;SDS011;61348;53.392;-6.248;2023-01-15T06:16:05;6.10;;;1.30;;
43706;SDS011;61348;53.392;-6.248;2023-01-15T06:18:33;9.13;;;1.38;;
43706;SDS011;61348;53.392;-6.248;2023-01-15T06:21:10;6.70;;;0.93;;
43706;SDS011;61348;53.392;-6.248;2023-01-15T06:23:38;3.72;;;0.77;;
43706;SDS011;61348;53.392;-6.248;2023-01-15T06:26:10;6.60;;;0.80;;
43706;SDS011;61348;53.392;-6.248;2023-01-15T06:28:42;6.30;;;1.27;;
43706;SDS011;61348;53.392;-6.248;2023-01-15T06:31:10;4.07;;;1.00;;
43706;SDS011;61348;53.392;-6.248;2023-01-15T06:33:38;11.55;;;0.95;;
43706;SDS011;61348;53.392;-6.248;2023-01-15T06:36:05;2.05;;;0.70;;
43706;SDS011;61348;53.392;-6.248;2023-01-15T06:38:35;1.55;;;0.88;;
43706;SDS011;61348;53.392;-6.248;2023-01-15T06:41:03;13.05;;;3.25;;
43706;SDS011;61348;53.392;-6.248;2023-01-15T06:43:51;4.25;;;1.02;;
43706;SDS011;61348;53.392;-6.248;2023-01-15T06:46:38;8.07;;;1.48;;
43706;SDS011;61348;53.392;-6.248;2023-01-15T06:49:28;4.30;;;1.13;;
43706;SDS011;61348;53.392;-6.248;2023-01-15T06:51:55;4.35;;;1.13;;
43706;SDS011;61348;53.392;-6.248;2023-01-15T06:54:22;5.22;;;1.35;;
43706;SDS011;61348;53.392;-6.248;2023-01-15T06:56:49;3.38;;;1.08;;
43706;SDS011;61348;53.392;-6.248;2023-01-15T06:59:17;4.55;;;0.80;;
43706;SDS011;61348;53.392;-6.248;2023-01-15T07:01:44;3.60;;;1.25;;
43706;SDS011;61348;53.392;-6.248;2023-01-15T07:04:12;6.90;;;1.65;;
43706;SDS011;61348;53.392;-6.248;2023-01-15T07:06:39;4.68;;;1.05;;
43706;SDS011;61348;53.392;-6.248;2023-01-15T07:09:06;4.30;;;1.10;;
43706;SDS011;61348;53.392;-6.248;2023-01-15T07:11:33;6.18;;;1.08;;
43706;SDS011;61348;53.392;-6.248;2023-01-15T07:14:00;9.45;;;1.23;;
43706;SDS011;61348;53.392;-6.248;2023-01-15T07:19:02;5.13;;;0.95;;
43706;SDS011;61348;53.392;-6.248;2023-01-15T07:21:29;7.25;;;0.93;;
43706;SDS011;61348;53.392;-6.248;2023-01-15T07:23:59;6.93;;;0.80;;
43706;SDS011;61348;53.392;-6.248;2023-01-15T07:26:26;3.35;;;0.88;;
43706;SDS011;61348;53.392;-6.248;2023-01-15T07:28:53;9.02;;;1.42;;
43706;SDS011;61348;53.392;-6.248;2023-01-15T07:31:22;7.18;;;0.95;;
43706;SDS011;61348;53.392;-6.248;2023-01-15T07:33:49;5.20;;;0.70;;
43706;SDS011;61348;53.392;-6.248;2023-01-15T07:36:16;4.20;;;1.67;;
43706;SDS011;61348;53.392;-6.248;2023-01-15T07:38:43;10.43;;;2.38;;
43706;SDS011;61348;53.392;-6.248;2023-01-15T07:41:10;4.50;;;0.77;;
43706;SDS011;61348;53.392;-6.248;2023-01-15T07:43:55;6.20;;;1.38;;
43706;SDS011;61348;53.392;-6.248;2023-01-15T07:46:40;3.22;;;0.93;;
43706;SDS011;61348;53.392;-6.248;2023-01-15T07:49:26;7.38;;;1.23;;
43706;SDS011;61348;53.392;-6.248;2023-01-15T07:52:12;3.08;;;1.40;;
43706;SDS011;61348;53.392;-6.248;2023-01-15T07:54:46;6.07;;;1.35;;
43706;SDS011;61348;53.392;-6.248;2023-01-15T07:57:14;4.82;;;0.70;;
43706;SDS011;61348;53.392;-6.248;2023-01-15T07:59:43;6.78;;;1.23;;
43706;SDS011;61348;53.392;-6.248;2023-01-15T08:02:10;13.00;;;2.22;;
43706;SDS011;61348;53.392;-6.248;2023-01-15T08:04:38;8.20;;;1.58;;
43706;SDS011;61348;53.392;-6.248;2023-01-15T08:07:08;7.07;;;1.33;;
43706;SDS011;61348;53.392;-6.248;2023-01-15T08:09:35;5.38;;;1.50;;
43706;SDS011;61348;53.392;-6.248;2023-01-15T08:12:03;5.38;;;1.38;;
43706;SDS011;61348;53.392;-6.248;2023-01-15T08:14:49;8.88;;;1.60;;
43706;SDS011;61348;53.392;-6.248;2023-01-15T08:17:34;12.90;;;2.30;;
43706;SDS011;61348;53.392;-6.248;2023-01-15T08:20:06;11.23;;;1.50;;
43706;SDS011;61348;53.392;-6.248;2023-01-15T08:22:41;4.82;;;1.30;;
43706;SDS011;61348;53.392;-6.248;2023-01-15T08:25:10;9.52;;;1.50;;
43706;SDS011;61348;53.392;-6.248;2023-01-15T08:27:39;8.27;;;1.63;;
43706;SDS011;61348;53.392;-6.248;2023-01-15T08:30:07;9.07;;;2.15;;
43706;SDS011;61348;53.392;-6.248;2023-01-15T08:32:39;13.68;;;2.13;;
43706;SDS011;61348;53.392;-6.248;2023-01-15T08:35:06;8.38;;;1.45;;
43706;SDS011;61348;53.392;-6.248;2023-01-15T08:37:33;18.33;;;3.95;;
43706;SDS011;61348;53.392;-6.248;2023-01-15T08:40:00;19.40;;;2.60;;
43706;SDS011;61348;53.392;-6.248;2023-01-15T08:42:27;10.85;;;1.52;;
43706;SDS011;61348;53.392;-6.248;2023-01-15T08:44:54;15.57;;;2.55;;
43706;SDS011;61348;53.392;-6.248;2023-01-15T08:47:21;7.45;;;1.45;;
43706;SDS011;61348;53.392;-6.248;2023-01-15T08:49:49;19.95;;;2.88;;
43706;SDS011;61348;53.392;-6.248;2023-01-15T08:52:16;8.73;;;1.77;;
43706;SDS011;61348;53.392;-6.248;2023-01-15T08:54:43;9.90;;;1.42;;
43706;SDS011;61348;53.392;-6.248;2023-01-15T08:57:10;11.43;;;1.75;;
43706;SDS011;61348;53.392;-6.248;2023-01-15T08:59:38;4.88;;;1.55;;
43706;SDS011;61348;53.392;-6.248;2023-01-15T09:02:10;10.02;;;1.52;;
43706;SDS011;61348;53.392;-6.248;2023-01-15T09:04:39;13.82;;;2.80;;
43706;SDS011;61348;53.392;-6.248;2023-01-15T09:07:06;22.35;;;1.98;;
43706;SDS011;61348;53.392;-6.248;2023-01-15T09:09:33;10.23;;;2.50;;
43706;SDS011;61348;53.392;-6.248;2023-01-15T09:12:00;10.05;;;2.20;;
43706;SDS011;61348;53.392;-6.248;2023-01-15T09:14:26;10.07;;;2.53;;
43706;SDS011;61348;53.392;-6.248;2023-01-15T09:17:13;8.20;;;2.13;;
43706;SDS011;61348;53.392;-6.248;2023-01-15T09:19:40;9.32;;;2.17;;
43706;SDS011;61348;53.392;-6.248;2023-01-15T09:22:06;11.38;;;2.25;;
43706;SDS011;61348;53.392;-6.248;2023-01-15T09:24:33;10.45;;;2.50;;
43706;SDS011;61348;53.392;-6.248;2023-01-15T09:27:00;17.45;;;2.60;;
43706;SDS011;61348;53.392;-6.248;2023-01-15T09:29:26;13.63;;;2.10;;
43706;SDS011;61348;53.392;-6.248;2023-01-15T09:31:53;12.18;;;2.10;;
43706;SDS011;61348;53.392;-6.248;2023-01-15T09:34:20;11.45;;;1.90;;
43706;SDS011;61348;53.392;-6.248;2023-01-15T09:36:46;10.98;;;1.88;;
43706;SDS011;61348;53.392;-6.248;2023-01-15T09:39:13;16.38;;;2.97;;
43706;SDS011;61348;53.392;-6.248;2023-01-15T09:47:45;11.05;;;2.40;;
43706;SDS011;61348;53.392;-6.248;2023-01-15T09:50:17;9.45;;;2.38;;
43706;SDS011;61348;53.392;-6.248;2023-01-15T09:55:27;14.98;;;2.45;;
43706;SDS011;61348;53.392;-6.248;2023-01-15T09:57:58;10.82;;;2.55;;
43706;SDS011;61348;53.392;-6.248;2023-01-15T10:00:28;4.18;;;1.30;;
43706;SDS011;61348;53.392;-6.248;2023-01-15T10:03:13;10.50;;;1.80;;
43706;SDS011;61348;53.392;-6.248;2023-01-15T10:08:54;8.32;;;2.13;;
43706;SDS011;61348;53.392;-6.248;2023-01-15T10:11:44;6.97;;;1.65;;
43706;SDS011;61348;53.392;-6.248;2023-01-15T10:14:46;9.35;;;1.70;;
43706;SDS011;61348;53.392;-6.248;2023-01-15T10:17:22;7.32;;;1.38;;
43706;SDS011;61348;53.392;-6.248;2023-01-15T10:24:57;5.97;;;1.70;;
43706;SDS011;61348;53.392;-6.248;2023-01-15T10:27:27;3.05;;;1.30;;
43706;SDS011;61348;53.392;-6.248;2023-01-15T10:30:16;4.55;;;1.40;;
43706;SDS011;61348;53.392;-6.248;2023-01-15T10:32:48;4.43;;;1.92;;
43706;SDS011;61348;53.392;-6.248;2023-01-15T10:35:39;3.47;;;1.70;;
43706;SDS011;61348;53.392;-6.248;2023-01-15T10:44:17;13.35;;;2.63;;
43706;SDS011;61348;53.392;-6.248;2023-01-15T10:46:52;9.05;;;3.55;;
43706;SDS011;61348;53.392;-6.248;2023-01-15T10:49:25;5.43;;;1.77;;
43706;SDS011;61348;53.392;-6.248;2023-01-15T10:51:55;9.73;;;2.17;;
43706;SDS011;61348;53.392;-6.248;2023-01-15T10:54:35;7.75;;;1.92;;
43706;SDS011;61348;53.392;-6.248;2023-01-15T11:04:56;11.88;;;3.92;;
43706;SDS011;61348;53.392;-6.248;2023-01-15T11:07:41;8.90;;;1.98;;
43706;SDS011;61348;53.392;-6.248;2023-01-15T11:10:29;6.85;;;2.10;;
43706;SDS011;61348;53.392;-6.248;2023-01-15T11:13:19;9.18;;;2.50;;
43706;SDS011;61348;53.392;-6.248;2023-01-15T11:16:16;9.95;;;2.65;;
43706;SDS011;61348;53.392;-6.248;2023-01-15T11:19:23;4.75;;;1.80;;
43706;SDS011;61348;53.392;-6.248;2023-01-15T11:22:10;6.32;;;2.25;;
43706;SDS011;61348;53.392;-6.248;2023-01-15T11:24:49;8.38;;;2.08;;
43706;SDS011;61348;53.392;-6.248;2023-01-15T11:27:20;4.80;;;2.08;;
43706;SDS011;61348;53.392;-6.248;2023-01-15T11:29:54;5.22;;;1.17;;
43706;SDS011;61348;53.392;-6.248;2023-01-15T11:32:24;6.60;;;1.88;;
43706;SDS011;61348;53.392;-6.248;2023-01-15T11:34:51;8.80;;;2.67;;
43706;SDS011;61348;53.392;-6.248;2023-01-15T11:37:19;14.35;;;2.80;;
43706;SDS011;61348;53.392;-6.248;2023-01-15T11:39:52;6.30;;;2.10;;
43706;SDS011;61348;53.392;-6.248;2023-01-15T11:42:31;7.38;;;1.73;;
43706;SDS011;61348;53.392;-6.248;2023-01-15T11:45:28;5.07;;;1.48;;
43706;SDS011;61348;53.392;-6.248;2023-01-15T11:48:20;4.47;;;1.20;;
43706;SDS011;61348;53.392;-6.248;2023-01-15T11:53:37;6.75;;;2.25;;
43706;SDS011;61348;53.392;-6.248;2023-01-15T11:56:12;5.55;;;1.70;;
43706;SDS011;61348;53.392;-6.248;2023-01-15T11:58:45;5.72;;;1.95;;
43706;SDS011;61348;53.392;-6.248;2023-01-15T12:01:21;6.63;;;2.00;;
43706;SDS011;61348;53.392;-6.248;2023-01-15T12:03:53;6.97;;;2.45;;
43706;SDS011;61348;53.392;-6.248;2023-01-15T12:06:21;11.95;;;2.67;;
43706;SDS011;61348;53.392;-6.248;2023-01-15T12:08:50;10.00;;;3.03;;
43706;SDS011;61348;53.392;-6.248;2023-01-15T12:11:45;14.93;;;2.83;;
43706;SDS011;61348;53.392;-6.248;2023-01-15T12:14:43;4.88;;;2.17;;
43706;SDS011;61348;53.392;-6.248;2023-01-15T12:29:05;12.98;;;3.03;;
43706;SDS011;61348;53.392;-6.248;2023-01-15T12:31:31;10.52;;;2.42;;
43706;SDS011;61348;53.392;-6.248;2023-01-15T12:34:20;13.30;;;2.90;;
43706;SDS011;61348;53.392;-6.248;2023-01-15T12:36:51;6.95;;;1.80;;
43706;SDS011;61348;53.392;-6.248;2023-01-15T12:42:20;6.93;;;2.28;;
43706;SDS011;61348;53.392;-6.248;2023-01-15T12:45:12;6.68;;;1.67;;
43706;SDS011;61348;53.392;-6.248;2023-01-15T12:47:45;9.07;;;2.80;;
43706;SDS011;61348;53.392;-6.248;2023-01-15T13:01:46;7.88;;;2.47;;
43706;SDS011;61348;53.392;-6.248;2023-01-15T13:04:27;5.50;;;1.95;;
43706;SDS011;61348;53.392;-6.248;2023-01-15T13:07:02;12.57;;;2.67;;
43706;SDS011;61348;53.392;-6.248;2023-01-15T13:09:40;9.75;;;4.03;;
43706;SDS011;61348;53.392;-6.248;2023-01-15T13:12:11;6.63;;;2.97;;
43706;SDS011;61348;53.392;-6.248;2023-01-15T13:14:40;12.57;;;5.57;;
43706;SDS011;61348;53.392;-6.248;2023-01-15T13:17:13;10.00;;;2.85;;
43706;SDS011;61348;53.392;-6.248;2023-01-15T13:23:00;10.05;;;4.20;;
43706;SDS011;61348;53.392;-6.248;2023-01-15T13:25:49;8.30;;;4.47;;
43706;SDS011;61348;53.392;-6.248;2023-01-15T13:36:42;7.72;;;2.83;;
43706;SDS011;61348;53.392;-6.248;2023-01-15T13:39:15;12.00;;;4.18;;
43706;SDS011;61348;53.392;-6.248;2023-01-15T13:41:49;9.35;;;2.83;;
43706;SDS011;61348;53.392;-6.248;2023-01-15T13:44:37;9.35;;;3.53;;
43706;SDS011;61348;53.392;-6.248;2023-01-15T13:47:16;8.68;;;2.50;;
43706;SDS011;61348;53.392;-6.248;2023-01-15T13:49:50;8.35;;;3.03;;
43706;SDS011;61348;53.392;-6.248;2023-01-15T13:54:53;6.78;;;3.85;;
43706;SDS011;61348;53.392;-6.248;2023-01-15T13:57:31;7.57;;;2.80;;
43706;SDS011;61348;53.392;-6.248;2023-01-15T14:00:01;13.93;;;3.30;;
43706;SDS011;61348;53.392;-6.248;2023-01-15T14:02:34;15.65;;;5.25;;
43706;SDS011;61348;53.392;-6.248;2023-01-15T14:07:53;6.88;;;3.60;;
43706;SDS011;61348;53.392;-6.248;2023-01-15T14:10:25;11.15;;;4.03;;
43706;SDS011;61348;53.392;-6.248;2023-01-15T14:21:43;10.38;;;3.55;;
43706;SDS011;61348;53.392;-6.248;2023-01-15T14:30:29;11.87;;;4.60;;
43706;SDS011;61348;53.392;-6.248;2023-01-15T14:33:26;8.43;;;3.75;;
43706;SDS011;61348;53.392;-6.248;2023-01-15T14:36:16;10.15;;;6.40;;
43706;SDS011;61348;53.392;-6.248;2023-01-15T14:38:46;6.97;;;4.32;;
43706;SDS011;61348;53.392;-6.248;2023-01-15T14:41:23;14.98;;;7.97;;
43706;SDS011;61348;53.392;-6.248;2023-01-15T14:43:56;8.75;;;5.28;;
43706;SDS011;61348;53.392;-6.248;2023-01-15T14:46:32;5.07;;;3.50;;
43706;SDS011;61348;53.392;-6.248;2023-01-15T14:49:02;6.22;;;3.28;;
43706;SDS011;61348;53.392;-6.248;2023-01-15T14:51:44;7.90;;;3.63;;
43706;SDS011;61348;53.392;-6.248;2023-01-15T14:54:15;10.13;;;4.63;;
43706;SDS011;61348;53.392;-6.248;2023-01-15T14:56:49;10.73;;;6.28;;
43706;SDS011;61348;53.392;-6.248;2023-01-15T14:59:20;21.50;;;12.70;;
43706;SDS011;61348;53.392;-6.248;2023-01-15T15:07:00;4.70;;;3.88;;
43706;SDS011;61348;53.392;-6.248;2023-01-15T15:09:43;8.73;;;4.60;;
43706;SDS011;61348;53.392;-6.248;2023-01-15T15:14:48;5.97;;;4.30;;
43706;SDS011;61348;53.392;-6.248;2023-01-15T15:17:29;7.03;;;5.18;;
43706;SDS011;61348;53.392;-6.248;2023-01-15T15:20:14;7.45;;;4.72;;
43706;SDS011;61348;53.392;-6.248;2023-01-15T15:22:47;9.23;;;5.28;;
43706;SDS011;61348;53.392;-6.248;2023-01-15T15:25:18;5.65;;;4.03;;
43706;SDS011;61348;53.392;-6.248;2023-01-15T15:27:48;11.80;;;6.30;;
43706;SDS011;61348;53.392;-6.248;2023-01-15T15:30:14;9.32;;;5.00;;
43706;SDS011;61348;53.392;-6.248;2023-01-15T15:32:43;9.50;;;4.57;;
43706;SDS011;61348;53.392;-6.248;2023-01-15T15:38:13;8.80;;;4.90;;
43706;SDS011;61348;53.392;-6.248;2023-01-15T15:40:48;7.80;;;4.43;;
43706;SDS011;61348;53.392;-6.248;2023-01-15T15:43:19;7.00;;;4.75;;
43706;SDS011;61348;53.392;-6.248;2023-01-15T15:46:23;6.55;;;4.43;;
43706;SDS011;61348;53.392;-6.248;2023-01-15T15:49:10;3.63;;;2.80;;
43706;SDS011;61348;53.392;-6.248;2023-01-15T15:54:20;4.82;;;4.32;;
43706;SDS011;61348;53.392;-6.248;2023-01-15T15:59:43;8.85;;;5.35;;
43706;SDS011;61348;53.392;-6.248;2023-01-15T16:02:20;8.32;;;5.40;;
43706;SDS011;61348;53.392;-6.248;2023-01-15T16:04:53;8.30;;;5.90;;
43706;SDS011;61348;53.392;-6.248;2023-01-15T16:09:53;10.80;;;7.50;;
43706;SDS011;61348;53.392;-6.248;2023-01-15T16:12:25;16.77;;;10.13;;
43706;SDS011;61348;53.392;-6.248;2023-01-15T16:14:54;11.93;;;9.15;;
43706;SDS011;61348;53.392;-6.248;2023-01-15T16:17:23;14.10;;;9.70;;
43706;SDS011;61348;53.392;-6.248;2023-01-15T16:19:54;17.38;;;10.57;;
43706;SDS011;61348;53.392;-6.248;2023-01-15T16:22:22;14.90;;;10.18;;
43706;SDS011;61348;53.392;-6.248;2023-01-15T16:24:54;14.73;;;9.35;;
43706;SDS011;61348;53.392;-6.248;2023-01-15T16:27:24;11.65;;;8.65;;
43706;SDS011;61348;53.392;-6.248;2023-01-15T16:29:57;11.43;;;6.80;;
43706;SDS011;61348;53.392;-6.248;2023-01-15T16:32:26;14.65;;;8.82;;
43706;SDS011;61348;53.392;-6.248;2023-01-15T16:35:15;15.65;;;8.20;;
43706;SDS011;61348;53.392;-6.248;2023-01-15T16:37:51;13.65;;;7.72;;
43706;SDS011;61348;53.392;-6.248;2023-01-15T16:46:15;13.95;;;7.07;;
43706;SDS011;61348;53.392;-6.248;2023-01-15T16:48:44;9.82;;;7.07;;
43706;SDS011;61348;53.392;-6.248;2023-01-15T16:51:31;13.68;;;6.85;;
43706;SDS011;61348;53.392;-6.248;2023-01-15T16:54:03;10.65;;;6.88;;
43706;SDS011;61348;53.392;-6.248;2023-01-15T17:01:48;11.88;;;7.07;;
43706;SDS011;61348;53.392;-6.248;2023-01-15T17:09:29;12.70;;;7.03;;
43706;SDS011;61348;53.392;-6.248;2023-01-15T17:12:08;7.63;;;5.50;;
43706;SDS011;61348;53.392;-6.248;2023-01-15T17:14:48;11.30;;;7.65;;
43706;SDS011;61348;53.392;-6.248;2023-01-15T17:19:44;11.32;;;6.05;;
43706;SDS011;61348;53.392;-6.248;2023-01-15T17:28:07;10.88;;;6.32;;
43706;SDS011;61348;53.392;-6.248;2023-01-15T17:30:37;12.23;;;5.97;;
43706;SDS011;61348;53.392;-6.248;2023-01-15T17:33:04;9.40;;;4.78;;
43706;SDS011;61348;53.392;-6.248;2023-01-15T17:35:36;6.68;;;3.90;;
43706;SDS011;61348;53.392;-6.248;2023-01-15T17:38:04;7.15;;;5.47;;
43706;SDS011;61348;53.392;-6.248;2023-01-15T17:40:32;8.68;;;5.47;;
43706;SDS011;61348;53.392;-6.248;2023-01-15T17:42:59;11.43;;;5.60;;